createdAt,value
2023-04-18T05:53:14.969Z,13.37
2023-04-18T05:56:10.946Z,13.84
2023-04-18T05:58:39.441Z,14.76
2023-04-18T06:01:14.395Z,13.57
2023-04-18T06:03:45.905Z,13.15
2023-04-18T06:06:14.709Z,13.91
2023-04-18T06:08:44.497Z,14.06
2023-04-18T06:11:15.117Z,15.02
2023-04-18T06:13:43.599Z,15.54
2023-04-18T06:16:12.167Z,14.25
2023-04-18T06:18:40.902Z,14.54
2023-04-18T06:21:09.440Z,14.57
2023-04-18T06:23:38.640Z,15.41
2023-04-18T06:26:09.360Z,15.85
2023-04-18T06:28:37.843Z,16.53
2023-04-18T06:31:06.656Z,16.48
2023-04-18T06:33:35.746Z,15.41
2023-04-18T06:36:04.146Z,16.21
2023-04-18T06:38:36.343Z,16.86
2023-04-18T06:41:05.011Z,16.96
2023-04-18T06:43:37.828Z,15.65
2023-04-18T06:46:14.530Z,15.61
2023-04-18T06:48:42.977Z,15.52
2023-04-18T06:51:11.418Z,15.93
2023-04-18T06:53:39.863Z,16.75
2023-04-18T06:56:08.922Z,16.62
2023-04-18T06:58:40.158Z,15.94
2023-04-18T07:01:08.822Z,15.91
2023-04-18T07:03:46.571Z,16.43
2023-04-18T07:06:15.392Z,15.12
2023-04-18T07:08:44.526Z,15.85
2023-04-18T07:11:14.071Z,16.39
2023-04-18T07:13:45.649Z,16.24
2023-04-18T07:16:21.525Z,15.77
2023-04-18T07:18:50.213Z,15.78
2023-04-18T07:21:18.902Z,16.43
2023-04-18T07:23:48.102Z,16.66
2023-04-18T07:26:16.590Z,17.87
2023-04-18T07:28:47.045Z,17.30
2023-04-18T07:31:16.799Z,18.82
2023-04-18T07:33:45.519Z,17.90
2023-04-18T07:36:14.044Z,17.41
2023-04-18T07:38:45.823Z,17.38
2023-04-18T07:41:17.660Z,16.54
2023-04-18T07:43:47.763Z,16.99
2023-04-18T07:46:16.415Z,17.92
2023-04-18T07:48:44.840Z,17.45
2023-04-18T07:51:13.732Z,17.70
2023-04-18T07:53:43.765Z,17.87
2023-04-18T07:56:14.680Z,17.41
2023-04-18T07:58:43.374Z,18.05
2023-04-18T08:01:15.438Z,18.67
2023-04-18T08:03:44.320Z,18.40
2023-04-18T08:06:12.855Z,17.28
2023-04-18T08:08:41.439Z,17.28
2023-04-18T08:11:10.080Z,17.85
2023-04-18T08:13:38.629Z,17.58
2023-04-18T08:16:07.739Z,17.64
2023-04-18T08:18:37.735Z,18.01
2023-04-18T08:21:06.685Z,18.56
2023-04-18T08:23:35.250Z,19.24
2023-04-18T08:26:03.737Z,19.57
2023-04-18T08:28:32.256Z,19.55
2023-04-18T08:31:00.823Z,18.70
2023-04-18T08:33:32.427Z,18.54
2023-04-18T08:36:02.630Z,19.22
2023-04-18T08:38:31.317Z,19.33
2023-04-18T08:40:59.906Z,20.52
2023-04-18T08:43:30.318Z,21.03
2023-04-18T08:46:00.951Z,20.85
2023-04-18T08:48:29.639Z,18.86
2023-04-18T08:50:59.292Z,18.82
2023-04-18T08:53:29.330Z,18.34
2023-04-18T08:56:00.485Z,18.92
2023-04-18T08:58:33.958Z,21.22
2023-04-18T09:01:02.558Z,20.70
2023-04-18T09:03:39.859Z,19.65
2023-04-18T09:06:10.542Z,18.40
2023-04-18T09:08:43.365Z,19.61
2023-04-18T09:11:26.195Z,19.34
2023-04-18T09:13:56.435Z,18.34
2023-04-18T09:16:25.446Z,17.94
2023-04-18T09:19:14.443Z,18.40
2023-04-18T09:21:46.451Z,17.91
2023-04-18T09:24:24.148Z,17.23
2023-04-18T09:26:54.241Z,16.98
2023-04-18T09:29:24.235Z,17.77
2023-04-18T09:32:03.000Z,18.26
2023-04-18T09:34:34.065Z,17.10
2023-04-18T09:37:10.433Z,17.32
2023-04-18T09:39:41.669Z,17.26
2023-04-18T09:42:11.264Z,17.97
2023-04-18T09:44:39.997Z,17.29
2023-04-18T09:47:08.930Z,18.03
2023-04-18T09:49:39.302Z,16.54
2023-04-18T09:52:08.977Z,16.56
2023-04-18T09:54:41.550Z,16.45
2023-04-18T09:57:13.792Z,16.47
2023-04-18T09:59:48.543Z,16.53
2023-04-18T10:02:22.333Z,16.47
2023-04-18T10:04:52.295Z,16.70
2023-04-18T10:07:22.404Z,16.54
2023-04-18T10:09:53.329Z,16.09
2023-04-18T10:12:22.037Z,16.20
2023-04-18T10:14:50.912Z,16.23
2023-04-18T10:17:21.736Z,16.33
2023-04-18T10:20:07.236Z,16.10
2023-04-18T10:22:36.784Z,15.95
2023-04-18T10:25:08.156Z,16.26
2023-04-18T10:27:59.693Z,16.27
2023-04-18T10:30:52.352Z,16.47
2023-04-18T10:33:32.251Z,16.26
2023-04-18T10:36:16.213Z,16.42
2023-04-18T10:38:49.808Z,17.23
2023-04-18T10:41:27.537Z,16.63
2023-04-18T10:44:29.392Z,16.64
2023-04-18T10:47:25.576Z,17.29
2023-04-18T10:50:06.253Z,16.85
2023-04-18T10:52:35.660Z,16.88
2023-04-18T10:55:15.793Z,16.76
2023-04-18T10:57:47.002Z,16.67
2023-04-18T11:00:17.850Z,16.46
2023-04-18T11:02:52.189Z,17.01
2023-04-18T11:05:23.232Z,17.03
2023-04-18T11:07:51.852Z,17.31
2023-04-18T11:10:22.244Z,16.87
2023-04-18T11:12:52.806Z,16.32
2023-04-18T11:15:22.766Z,16.51
2023-04-18T11:17:59.322Z,16.19
2023-04-18T11:20:28.491Z,16.25
2023-04-18T11:22:58.387Z,16.58
2023-04-18T11:25:29.493Z,16.61
2023-04-18T11:28:03.799Z,17.41
2023-04-18T11:30:38.832Z,17.20
2023-04-18T11:33:10.316Z,17.14
2023-04-18T11:35:40.631Z,16.08
2023-04-18T11:38:11.788Z,16.33
2023-04-18T11:40:40.836Z,16.44
2023-04-18T11:43:10.668Z,16.64
2023-04-18T11:45:39.379Z,17.09
2023-04-18T11:48:07.899Z,16.81
2023-04-18T11:50:40.499Z,16.80
2023-04-18T11:53:13.089Z,17.15
2023-04-18T11:55:42.565Z,17.56
2023-04-18T11:58:14.881Z,17.46
2023-04-18T12:00:46.989Z,18.47
2023-04-18T12:03:17.994Z,17.79
2023-04-18T12:05:47.125Z,17.97
2023-04-18T12:08:20.106Z,17.34
2023-04-18T12:10:50.686Z,17.27
2023-04-18T12:13:36.953Z,17.19
2023-04-18T12:16:13.808Z,17.48
2023-04-18T12:21:32.561Z,17.54
2023-04-18T12:24:01.634Z,18.28
2023-04-18T12:26:30.150Z,17.95
2023-04-18T12:29:02.237Z,17.12
2023-04-18T12:31:30.738Z,17.12
2023-04-18T12:34:00.648Z,17.06
2023-04-18T12:36:29.224Z,17.54
2023-04-18T12:38:57.700Z,17.62
2023-04-18T12:42:10.796Z,18.13
2023-04-18T12:44:48.093Z,16.98
2023-04-18T12:47:22.119Z,17.35
2023-04-18T12:49:58.237Z,17.44
2023-04-18T12:52:27.245Z,17.00
2023-04-18T12:55:00.443Z,17.30
2023-04-18T12:57:30.581Z,18.16
2023-04-18T13:00:01.959Z,18.66
2023-04-18T13:02:38.552Z,17.96
2023-04-18T13:08:41.703Z,17.72
2023-04-18T13:11:10.600Z,18.06
2023-04-18T13:13:39.470Z,17.75
2023-04-18T13:16:09.693Z,18.17
2023-04-18T13:18:38.202Z,17.16
2023-04-18T13:21:06.902Z,17.60
2023-04-18T13:23:35.620Z,17.72
2023-04-18T13:26:04.092Z,17.65
2023-04-18T13:28:32.617Z,17.60
2023-04-18T13:31:01.093Z,17.69
2023-04-18T13:33:31.062Z,18.14
2023-04-18T13:35:59.727Z,17.49
2023-04-18T13:38:31.554Z,17.21
2023-04-18T13:41:11.538Z,17.29
2023-04-18T13:43:41.735Z,17.86
2023-04-18T13:46:13.281Z,17.73
2023-04-18T13:48:45.170Z,17.45
2023-04-18T13:51:16.597Z,16.66
2023-04-18T13:53:49.869Z,17.21
2023-04-18T13:56:23.743Z,17.78
2023-04-18T13:59:16.862Z,16.78
2023-04-18T14:01:47.277Z,16.83
2023-04-18T14:04:23.220Z,17.40
2023-04-18T14:06:54.951Z,16.90
2023-04-18T14:09:26.140Z,17.87
2023-04-18T14:11:58.456Z,17.28
2023-04-18T14:14:27.185Z,17.45
2023-04-18T14:16:55.883Z,17.50
2023-04-18T14:19:26.084Z,17.83
2023-04-18T14:21:57.530Z,17.82
2023-04-18T14:24:26.351Z,18.05
2023-04-18T14:26:54.948Z,18.07
2023-04-18T14:29:23.452Z,17.44
2023-04-18T14:32:02.005Z,18.11
2023-04-18T14:34:38.846Z,17.05
2023-04-18T14:37:08.983Z,18.32
2023-04-18T14:39:40.546Z,18.15
2023-04-18T14:42:11.623Z,17.82
2023-04-18T14:44:40.313Z,18.35
2023-04-18T14:47:42.892Z,18.12
2023-04-18T14:50:18.302Z,17.68
2023-04-18T14:52:50.843Z,17.57
2023-04-18T14:55:24.706Z,17.63
2023-04-18T14:58:17.858Z,17.21
2023-04-18T15:01:25.267Z,17.26
2023-04-18T15:03:55.971Z,17.23
2023-04-18T15:06:30.655Z,16.76
2023-04-18T15:09:31.003Z,16.54
2023-04-18T15:12:10.386Z,16.68
2023-04-18T15:14:51.172Z,17.18
2023-04-18T15:17:21.934Z,16.64
2023-04-18T15:19:55.215Z,16.65
2023-04-18T15:22:25.317Z,16.34
2023-04-18T15:24:53.982Z,16.23
2023-04-18T15:27:29.877Z,16.37
2023-04-18T15:30:08.430Z,16.39
2023-04-18T15:32:37.017Z,16.07
2023-04-18T15:35:06.711Z,16.10
2023-04-18T15:37:37.001Z,16.10
2023-04-18T15:40:11.203Z,15.96
2023-04-18T15:42:43.321Z,15.95
2023-04-18T15:45:12.515Z,16.05
2023-04-18T15:47:41.897Z,15.94
2023-04-18T15:50:11.297Z,16.03
2023-04-18T15:52:42.285Z,15.86
2023-04-18T15:55:13.381Z,15.93
2023-04-18T15:57:42.543Z,16.05
2023-04-18T16:00:32.642Z,15.62
2023-04-18T16:03:10.579Z,16.04
2023-04-18T16:05:40.958Z,16.21
2023-04-18T16:08:11.012Z,16.17
2023-04-18T16:10:42.268Z,16.25
2023-04-18T16:13:14.082Z,16.20
2023-04-18T16:15:45.754Z,16.03
2023-04-18T16:18:14.428Z,16.11
2023-04-18T16:20:42.999Z,16.01
2023-04-18T16:23:12.882Z,15.91
2023-04-18T16:25:41.511Z,15.61
2023-04-18T16:28:10.613Z,15.69
2023-04-18T16:30:39.188Z,15.70
2023-04-18T16:33:08.840Z,15.55
2023-04-18T16:35:41.400Z,15.51
2023-04-18T16:38:10.117Z,15.35
2023-04-18T16:40:43.194Z,15.55
2023-04-18T16:43:13.171Z,15.70
2023-04-18T16:45:44.078Z,15.50
2023-04-18T16:48:12.849Z,15.24
2023-04-18T16:50:41.347Z,15.57
2023-04-18T16:53:14.498Z,15.50
2023-04-18T16:55:45.846Z,15.27
2023-04-18T16:58:14.542Z,15.27
2023-04-18T17:00:45.716Z,15.15
2023-04-18T17:03:14.512Z,15.02
2023-04-18T17:05:42.988Z,15.49
2023-04-18T17:08:14.248Z,15.28
2023-04-18T17:10:44.249Z,15.32
2023-04-18T17:13:17.001Z,15.16
2023-04-18T17:15:45.694Z,15.26
2023-04-18T17:18:16.155Z,15.23
2023-04-18T17:20:44.771Z,15.09
2023-04-18T17:23:13.489Z,15.18
2023-04-18T17:25:41.956Z,15.16
2023-04-18T17:28:11.993Z,15.02
2023-04-18T17:30:42.803Z,15.11
2023-04-18T17:33:11.671Z,14.92
2023-04-18T17:35:42.219Z,14.98
2023-04-18T17:38:11.719Z,14.99
2023-04-18T17:40:40.752Z,14.92
2023-04-18T17:43:09.212Z,14.84
2023-04-18T17:45:39.292Z,14.79
2023-04-18T17:48:08.029Z,14.72
2023-04-18T17:50:38.177Z,14.51
2023-04-18T17:53:06.911Z,14.50
2023-04-18T17:55:35.780Z,14.49
2023-04-18T17:58:05.301Z,15.09
2023-04-18T18:00:33.837Z,14.64
2023-04-18T18:03:04.555Z,14.54
2023-04-18T18:05:33.115Z,14.56
2023-04-18T18:08:01.695Z,14.57
2023-04-18T18:10:33.783Z,14.45
2023-04-18T18:13:02.292Z,14.50
2023-04-18T18:15:30.949Z,14.30
2023-04-18T18:17:59.740Z,14.50
2023-04-18T18:20:30.953Z,14.43
2023-04-18T18:23:00.333Z,14.41
2023-04-18T18:25:28.791Z,14.47
2023-04-18T18:27:57.258Z,14.54
2023-04-18T18:30:25.944Z,14.56
2023-04-18T18:32:54.654Z,14.57
2023-04-18T18:35:22.981Z,15.14
2023-04-18T18:37:54.637Z,14.67
2023-04-18T18:40:25.352Z,14.64
2023-04-18T18:42:54.981Z,14.63
2023-04-18T18:45:23.907Z,14.61
2023-04-18T18:47:55.928Z,14.42
2023-04-18T18:50:24.594Z,14.36
2023-04-18T18:52:54.511Z,14.39
2023-04-18T18:55:23.142Z,14.42
2023-04-18T18:57:51.933Z,14.40
2023-04-18T19:00:20.370Z,14.73
2023-04-18T19:02:48.638Z,14.76
2023-04-18T19:05:19.295Z,14.61
2023-04-18T19:07:47.646Z,14.60
2023-04-18T19:10:17.234Z,14.49
2023-04-18T19:12:45.680Z,14.57
2023-04-18T19:15:17.282Z,14.36
2023-04-18T19:17:45.754Z,14.43
2023-04-18T19:20:14.784Z,14.08
2023-04-18T19:22:43.073Z,14.08
2023-04-18T19:25:11.433Z,14.07
2023-04-18T19:27:41.030Z,14.25
2023-04-18T19:30:10.689Z,14.39
2023-04-18T19:32:38.971Z,14.50
2023-04-18T19:35:09.905Z,14.39
2023-04-18T19:37:38.140Z,14.24
2023-04-18T19:40:07.608Z,14.16
2023-04-18T19:42:35.770Z,14.38
2023-04-18T19:45:05.784Z,14.30
2023-04-18T19:47:34.399Z,14.30
2023-04-18T19:50:02.618Z,14.17
2023-04-18T19:52:31.198Z,13.88
2023-04-18T19:55:02.738Z,14.02
2023-04-18T19:57:31.069Z,13.98
2023-04-18T19:59:59.175Z,13.63
2023-04-18T20:02:31.297Z,13.62
2023-04-18T20:04:59.742Z,12.71
2023-04-18T20:07:28.061Z,12.87
2023-04-18T20:09:56.448Z,13.17
2023-04-18T20:12:24.670Z,13.14
2023-04-18T20:14:53.916Z,13.25
2023-04-18T20:17:24.853Z,13.04
2023-04-18T20:19:57.226Z,12.57
2023-04-18T20:22:27.137Z,12.67
2023-04-18T20:24:57.872Z,12.96
2023-04-18T20:27:26.048Z,12.95
2023-04-18T20:29:55.483Z,13.01
2023-04-18T20:32:25.467Z,13.07
2023-04-18T20:34:55.109Z,13.15
2023-04-18T20:37:23.555Z,13.06
2023-04-18T20:39:52.971Z,13.17
2023-04-18T20:42:21.583Z,13.18
2023-04-18T20:45:02.600Z,12.85
2023-04-18T20:51:28.448Z,13.13
2023-04-18T20:53:56.897Z,12.93
2023-04-18T20:56:25.117Z,12.80
2023-04-18T20:58:55.698Z,13.22
2023-04-18T21:01:24.442Z,13.43
2023-04-18T21:03:52.908Z,13.40
2023-04-18T21:06:22.600Z,13.40
2023-04-18T21:08:50.859Z,13.21
2023-04-18T21:11:19.129Z,13.18
2023-04-18T21:13:47.280Z,13.16
2023-04-18T21:16:18.265Z,13.25
2023-04-18T21:18:46.501Z,13.25
2023-04-18T21:21:14.693Z,13.05
2023-04-18T21:23:47.003Z,13.10
2023-04-18T21:26:15.267Z,12.76
2023-04-18T21:28:56.305Z,12.88
2023-04-18T21:31:24.849Z,13.02
2023-04-18T21:33:53.555Z,12.91
2023-04-18T21:36:21.860Z,12.86
2023-04-18T21:38:52.594Z,12.73
2023-04-18T21:41:20.900Z,12.69
2023-04-18T21:43:49.028Z,12.41
2023-04-18T21:46:17.450Z,12.19
2023-04-18T21:48:46.446Z,12.35
2023-04-18T21:51:18.361Z,12.47
2023-04-18T21:53:46.525Z,12.28
2023-04-18T21:56:20.250Z,12.49
2023-04-18T21:58:48.490Z,12.44
2023-04-18T22:01:16.729Z,12.46
2023-04-18T22:03:45.153Z,12.52
2023-04-18T22:06:13.557Z,12.32
2023-04-18T22:08:42.197Z,12.33
2023-04-18T22:11:11.892Z,12.04
2023-04-18T22:13:45.186Z,12.24
2023-04-18T22:16:13.501Z,12.56
2023-04-18T22:18:41.724Z,12.56
2023-04-18T22:21:10.749Z,12.54
2023-04-18T22:23:39.052Z,12.75
2023-04-18T22:26:09.857Z,12.26
2023-04-18T22:28:37.984Z,12.08
2023-04-18T22:31:08.839Z,12.39
2023-04-18T22:33:37.017Z,12.45
2023-04-18T22:36:05.512Z,12.41
2023-04-18T22:38:33.817Z,12.42
2023-04-18T22:41:01.997Z,12.60
2023-04-18T22:43:30.778Z,12.45
2023-04-18T22:45:59.000Z,12.57
2023-04-18T22:48:28.534Z,12.11
2023-04-18T22:50:56.602Z,12.43
2023-04-18T22:53:24.771Z,12.48
2023-04-18T22:55:52.912Z,12.49
2023-04-18T22:58:21.130Z,12.54
2023-04-18T23:00:49.292Z,12.38
2023-04-18T23:03:17.502Z,12.46
2023-04-18T23:05:47.086Z,12.35
2023-04-18T23:08:15.146Z,12.28
2023-04-18T23:10:43.183Z,12.23
2023-04-18T23:13:11.274Z,12.35
2023-04-18T23:15:39.381Z,12.23
2023-04-18T23:18:07.537Z,12.09
2023-04-18T23:20:36.520Z,12.01
2023-04-18T23:23:05.980Z,12.17
2023-04-18T23:25:34.429Z,11.77
2023-04-18T23:28:02.518Z,11.95
2023-04-18T23:30:30.763Z,12.07
2023-04-18T23:32:58.965Z,12.11
2023-04-18T23:35:27.223Z,11.94
2023-04-18T23:37:55.348Z,11.86
2023-04-18T23:40:24.981Z,11.92
2023-04-18T23:42:53.035Z,11.73
2023-04-18T23:45:21.095Z,12.04
2023-04-18T23:47:49.397Z,12.00
2023-04-18T23:50:17.695Z,11.99
2023-04-18T23:52:45.910Z,12.01
2023-04-18T23:55:14.042Z,11.96
2023-04-18T23:57:44.438Z,11.94
